Time;durP1;ratioP1;P1;durP2;ratioP2;P2;SDS_P1;SDS_P2;PMS_P1;PMS_P2;Temp;Humidity;BMP_temperature;BMP_pressure;BME280_temperature;BME280_humidity;BME280_pressure;Samples;Min_cycle;Max_cycle;Signal;HPM_P1;HPM_P2
2023/01/13 00:02:18;;;;;;;54.50;51.60;;;;;;;;;;5101022;28;20441;-85
2023/01/13 00:04:45;;;;;;;58.50;55.20;;;;;;;;;;5099790;28;20484;-84
2023/01/13 00:07:12;;;;;;;57.83;54.60;;;;;;;;;;5099542;28;20514;-85
2023/01/13 00:09:40;;;;;;;63.67;60.17;;;;;;;;;;5101358;28;20458;-85
2023/01/13 00:12:07;;;;;;;65.83;62.23;;;;;;;;;;5100680;28;20460;-85
2023/01/13 00:14:34;;;;;;;61.57;58.27;;;;;;;;;;5099484;28;20477;-84
2023/01/13 00:17:01;;;;;;;59.40;56.07;;;;;;;;;;5100004;28;20496;-84
2023/01/13 00:19:28;;;;;;;66.13;62.53;;;;;;;;;;5100088;28;20450;-84
2023/01/13 00:21:55;;;;;;;65.90;62.30;;;;;;;;;;5100063;28;20498;-85
2023/01/13 00:24:22;;;;;;;61.33;57.53;;;;;;;;;;5101507;28;20451;-84
2023/01/13 00:26:51;;;;;;;57.77;54.57;;;;;;;;;;5103174;28;20472;-84
2023/01/13 00:29:18;;;;;;;56.60;53.47;;;;;;;;;;5103908;28;20438;-84
2023/01/13 00:31:45;;;;;;;54.73;51.83;;;;;;;;;;5104040;28;20427;-84
2023/01/13 00:34:12;;;;;;;57.70;54.60;;;;;;;;;;5103939;28;20451;-84
2023/01/13 00:36:39;;;;;;;56.30;53.30;;;;;;;;;;5103748;28;20835;-85
2023/01/13 00:39:06;;;;;;;54.47;51.47;;;;;;;;;;5104853;28;20472;-85
2023/01/13 00:43:21;;;;;;;54.67;51.57;;;;;;;;;;5104634;28;20449;-85
2023/01/13 00:44:29;;;;;;;54.50;51.50;;;;;;;;;;5104187;28;20423;-84
2023/01/13 00:46:56;;;;;;;57.70;54.53;;;;;;;;;;5103609;28;20511;-84
2023/01/13 00:49:23;;;;;;;58.03;54.73;;;;;;;;;;5104450;28;20433;-85
2023/01/13 00:51:50;;;;;;;55.00;52.00;;;;;;;;;;5104102;28;20444;-85
2023/01/13 00:54:18;;;;;;;54.53;51.63;;;;;;;;;;5103301;28;20436;-85
2023/01/13 00:56:45;;;;;;;57.30;54.30;;;;;;;;;;5103755;28;20493;-84
2023/01/13 00:59:13;;;;;;;54.03;51.03;;;;;;;;;;5105002;28;20445;-84
2023/01/13 01:01:41;;;;;;;54.50;51.43;;;;;;;;;;5104174;28;20513;-85
2023/01/13 01:04:09;;;;;;;54.67;51.73;;;;;;;;;;5104109;28;20448;-84
2023/01/13 01:06:36;;;;;;;44.20;41.70;;;;;;;;;;5103471;28;20480;-85
2023/01/13 01:09:04;;;;;;;49.60;46.77;;;;;;;;;;5104440;28;20415;-85
2023/01/13 01:11:32;;;;;;;47.37;44.77;;;;;;;;;;5112609;28;20407;-85
2023/01/13 01:14:00;;;;;;;47.60;44.47;;;;;;;;;;5115424;28;20423;-85
2023/01/13 01:16:28;;;;;;;49.23;46.53;;;;;;;;;;5115240;28;20464;-84
2023/01/13 01:18:57;;;;;;;48.90;46.30;;;;;;;;;;5104481;28;20427;-84
2023/01/13 01:21:24;;;;;;;46.57;44.07;;;;;;;;;;5103821;28;20998;-85
2023/01/13 01:23:51;;;;;;;45.37;43.07;;;;;;;;;;5103532;28;20402;-85
2023/01/13 01:26:20;;;;;;;42.20;40.10;;;;;;;;;;5102977;28;20520;-83
2023/01/13 01:28:47;;;;;;;42.77;40.37;;;;;;;;;;5104073;28;20989;-85
2023/01/13 01:31:15;;;;;;;43.43;40.90;;;;;;;;;;5103749;28;20452;-85
2023/01/13 01:33:42;;;;;;;40.40;38.20;;;;;;;;;;5102954;28;20460;-85
2023/01/13 01:36:15;;;;;;;40.33;37.93;;;;;;;;;;5103713;28;20435;-85
2023/01/13 01:38:42;;;;;;;36.93;35.03;;;;;;;;;;5103406;28;20446;-85
2023/01/13 01:41:10;;;;;;;39.57;37.47;;;;;;;;;;5102030;28;20437;-86
2023/01/13 01:44:01;;;;;;;39.23;37.23;;;;;;;;;;5102277;28;20486;-85
2023/01/13 01:46:29;;;;;;;41.07;38.83;;;;;;;;;;5101008;28;20543;-85
2023/01/13 01:48:58;;;;;;;37.80;35.90;;;;;;;;;;5101658;28;20412;-85
2023/01/13 01:51:28;;;;;;;36.73;34.70;;;;;;;;;;5102221;28;20430;-86
2023/01/13 01:53:57;;;;;;;36.90;34.93;;;;;;;;;;5101404;28;20424;-86
2023/01/13 01:56:24;;;;;;;37.43;35.33;;;;;;;;;;5101125;28;20497;-85
2023/01/13 01:58:52;;;;;;;39.20;37.03;;;;;;;;;;5101015;28;20419;-86
2023/01/13 02:01:19;;;;;;;39.30;36.93;;;;;;;;;;5100637;28;20916;-85
2023/01/13 02:03:50;;;;;;;39.77;37.67;;;;;;;;;;5100640;28;20419;-85
2023/01/13 02:06:17;;;;;;;38.13;36.13;;;;;;;;;;5100380;28;20492;-86
2023/01/13 02:08:46;;;;;;;39.30;37.20;;;;;;;;;;5101213;28;20423;-85
2023/01/13 02:14:14;;;;;;;36.70;34.77;;;;;;;;;;5100248;28;20383;-86
2023/01/13 02:16:45;;;;;;;38.87;36.70;;;;;;;;;;5100101;28;20860;-85
2023/01/13 02:19:23;;;;;;;39.70;37.60;;;;;;;;;;5100542;28;20440;-86
2023/01/13 02:22:07;;;;;;;41.20;39.10;;;;;;;;;;5100092;28;20463;-86
2023/01/13 02:24:53;;;;;;;36.73;34.80;;;;;;;;;;5099674;28;20498;-85
2023/01/13 02:27:32;;;;;;;36.40;34.53;;;;;;;;;;5100219;28;20998;-86
2023/01/13 02:32:59;;;;;;;37.90;35.40;;;;;;;;;;5100719;28;20961;-86
2023/01/13 02:35:28;;;;;;;35.40;33.37;;;;;;;;;;5100738;28;20458;-86
2023/01/13 02:37:57;;;;;;;34.37;32.57;;;;;;;;;;5099879;28;20496;-85
2023/01/13 02:40:26;;;;;;;36.93;34.90;;;;;;;;;;5099863;28;20509;-85
2023/01/13 02:45:59;;;;;;;35.77;33.73;;;;;;;;;;5038130;28;20430;-86
2023/01/13 02:48:28;;;;;;;36.37;34.40;;;;;;;;;;5037186;28;20441;-85
2023/01/13 02:50:57;;;;;;;34.03;32.23;;;;;;;;;;5067401;28;20446;-85
2023/01/13 02:53:28;;;;;;;33.33;31.27;;;;;;;;;;5099794;28;20847;-85
2023/01/13 02:55:56;;;;;;;30.77;28.37;;;;;;;;;;5100543;28;20436;-85
2023/01/13 02:58:26;;;;;;;26.37;24.80;;;;;;;;;;5100081;28;20502;-85
2023/01/13 03:00:53;;;;;;;25.33;23.63;;;;;;;;;;5100288;28;20423;-85
2023/01/13 03:03:22;;;;;;;24.87;23.17;;;;;;;;;;5099942;28;20459;-85
2023/01/13 03:05:50;;;;;;;25.07;23.60;;;;;;;;;;5099997;28;20460;-86
2023/01/13 03:08:23;;;;;;;26.33;23.83;;;;;;;;;;5099787;28;20456;-85
2023/01/13 03:10:57;;;;;;;24.50;22.70;;;;;;;;;;5101070;28;20476;-85
2023/01/13 03:13:34;;;;;;;25.37;23.03;;;;;;;;;;5100746;28;20433;-85
2023/01/13 03:16:06;;;;;;;25.87;23.47;;;;;;;;;;5100293;28;20441;-85
2023/01/13 03:18:40;;;;;;;23.60;22.27;;;;;;;;;;5100584;28;20479;-85
2023/01/13 03:21:08;;;;;;;24.23;22.13;;;;;;;;;;5100853;28;20421;-85
2023/01/13 03:23:37;;;;;;;24.83;22.90;;;;;;;;;;5100884;28;20445;-85
2023/01/13 03:26:08;;;;;;;25.70;23.27;;;;;;;;;;5099701;28;20431;-85
2023/01/13 03:28:40;;;;;;;24.30;22.60;;;;;;;;;;5101493;28;20490;-85
2023/01/13 03:31:10;;;;;;;24.33;22.10;;;;;;;;;;5100913;28;20379;-85
2023/01/13 03:33:44;;;;;;;25.13;23.00;;;;;;;;;;5100574;28;20447;-85
2023/01/13 03:36:13;;;;;;;22.83;21.63;;;;;;;;;;5100984;28;20881;-85
2023/01/13 03:38:42;;;;;;;24.00;22.27;;;;;;;;;;5101578;28;20538;-85
2023/01/13 03:41:11;;;;;;;25.67;24.05;;;;;;;;;;5100855;28;20210;-85
2023/01/13 03:46:30;;;;;;;25.47;24.07;;;;;;;;;;5101033;28;20232;-85
2023/01/13 03:49:00;;;;;;;24.77;23.40;;;;;;;;;;5101589;28;20448;-85
2023/01/13 03:51:29;;;;;;;25.03;23.43;;;;;;;;;;5101276;28;20472;-85
2023/01/13 03:53:58;;;;;;;26.13;24.10;;;;;;;;;;5101659;28;20410;-85
2023/01/13 03:56:28;;;;;;;26.97;25.00;;;;;;;;;;5100972;28;20442;-85
2023/01/13 03:58:55;;;;;;;24.63;23.10;;;;;;;;;;5101414;28;20458;-84
2023/01/13 04:01:25;;;;;;;31.37;29.00;;;;;;;;;;5101658;28;20488;-85
2023/01/13 04:03:54;;;;;;;29.40;26.70;;;;;;;;;;5100865;28;20429;-85
2023/01/13 04:06:25;;;;;;;33.17;30.63;;;;;;;;;;5100516;28;20504;-85
2023/01/13 04:08:56;;;;;;;25.57;23.70;;;;;;;;;;5101038;28;20448;-84
2023/01/13 04:11:28;;;;;;;27.17;24.53;;;;;;;;;;5101768;28;20602;-85
2023/01/13 04:13:56;;;;;;;24.60;23.00;;;;;;;;;;5100695;28;20495;-85
2023/01/13 04:16:26;;;;;;;25.60;23.33;;;;;;;;;;5100784;28;20472;-85
2023/01/13 04:18:53;;;;;;;25.00;23.23;;;;;;;;;;5101254;28;20466;-85
2023/01/13 04:21:20;;;;;;;21.80;20.40;;;;;;;;;;5101556;28;20433;-85
2023/01/13 04:23:50;;;;;;;23.00;21.07;;;;;;;;;;5100231;28;20407;-84
2023/01/13 04:26:18;;;;;;;21.63;20.00;;;;;;;;;;5100497;28;20796;-85
2023/01/13 04:28:45;;;;;;;21.20;19.80;;;;;;;;;;5100861;28;20482;-85
2023/01/13 04:31:12;;;;;;;19.60;18.37;;;;;;;;;;5099816;28;20438;-85
2023/01/13 04:33:39;;;;;;;22.70;20.60;;;;;;;;;;5101235;28;20439;-85
2023/01/13 04:36:06;;;;;;;22.77;21.27;;;;;;;;;;5100773;28;20456;-84
2023/01/13 04:38:33;;;;;;;23.50;21.43;;;;;;;;;;5100669;28;20457;-84
2023/01/13 04:41:02;;;;;;;28.93;21.90;;;;;;;;;;5101172;28;20508;-85
2023/01/13 04:43:29;;;;;;;22.13;20.63;;;;;;;;;;5101197;28;20452;-85
2023/01/13 04:45:56;;;;;;;22.33;20.37;;;;;;;;;;5100898;28;20481;-84
2023/01/13 04:48:23;;;;;;;23.03;20.77;;;;;;;;;;5100739;28;20456;-85
2023/01/13 04:50:50;;;;;;;22.80;20.80;;;;;;;;;;5101315;28;20412;-84
2023/01/13 04:53:17;;;;;;;22.00;20.40;;;;;;;;;;5100713;28;20427;-85
2023/01/13 04:55:46;;;;;;;22.87;20.47;;;;;;;;;;5100907;28;20452;-85
2023/01/13 04:58:14;;;;;;;22.83;21.33;;;;;;;;;;5100444;28;20469;-85
2023/01/13 05:00:42;;;;;;;23.83;20.63;;;;;;;;;;5106964;28;20471;-85
2023/01/13 05:03:09;;;;;;;20.97;19.40;;;;;;;;;;5112199;28;20452;-84
2023/01/13 05:05:36;;;;;;;21.40;19.80;;;;;;;;;;5110908;28;20447;-86
2023/01/13 05:08:03;;;;;;;21.57;20.00;;;;;;;;;;5103106;28;20449;-84
2023/01/13 05:10:30;;;;;;;19.87;18.77;;;;;;;;;;5102707;28;20451;-86
2023/01/13 05:18:30;;;;;;;20.80;19.60;;;;;;;;;;5104196;28;20521;-85
2023/01/13 05:20:57;;;;;;;20.27;18.97;;;;;;;;;;5104197;28;20517;-84
2023/01/13 05:26:08;;;;;;;22.03;19.97;;;;;;;;;;5103905;28;20418;-85
2023/01/13 05:28:36;;;;;;;20.10;18.90;;;;;;;;;;5086356;28;20789;-84
2023/01/13 05:31:05;;;;;;;21.03;19.20;;;;;;;;;;5103946;28;20443;-84
2023/01/13 05:33:32;;;;;;;21.67;19.93;;;;;;;;;;5103824;28;20465;-85
2023/01/13 05:36:02;;;;;;;21.53;19.67;;;;;;;;;;5103599;28;20500;-84
2023/01/13 05:38:29;;;;;;;20.13;18.93;;;;;;;;;;5104727;28;20951;-84
2023/01/13 05:43:43;;;;;;;19.23;18.23;;;;;;;;;;5103323;28;20486;-85
2023/01/13 05:46:13;;;;;;;21.23;19.50;;;;;;;;;;5103507;28;20475;-84
2023/01/13 05:48:41;;;;;;;19.03;17.93;;;;;;;;;;5104116;28;20437;-85
2023/01/13 05:51:09;;;;;;;20.20;18.80;;;;;;;;;;5103684;28;20452;-85
2023/01/13 05:53:36;;;;;;;18.97;17.77;;;;;;;;;;5103735;28;20460;-85
2023/01/13 05:56:04;;;;;;;20.30;19.03;;;;;;;;;;5102949;28;20505;-86
2023/01/13 05:58:31;;;;;;;18.70;17.70;;;;;;;;;;5103110;28;20464;-84
2023/01/13 06:01:00;;;;;;;26.13;20.13;;;;;;;;;;5103811;28;20985;-85
2023/01/13 06:03:28;;;;;;;19.42;18.40;;;;;;;;;;5103305;28;20504;-85
2023/01/13 06:05:58;;;;;;;20.07;18.87;;;;;;;;;;5102853;28;20639;-85
2023/01/13 06:08:25;;;;;;;18.57;17.57;;;;;;;;;;5103878;28;20484;-84
2023/01/13 06:10:52;;;;;;;20.97;19.60;;;;;;;;;;5103336;28;20439;-84
2023/01/13 06:13:19;;;;;;;19.43;18.43;;;;;;;;;;5102785;28;20467;-84
2023/01/13 06:15:46;;;;;;;20.30;18.47;;;;;;;;;;5103280;28;20844;-86
2023/01/13 06:18:13;;;;;;;18.70;17.77;;;;;;;;;;5103510;28;20458;-85
2023/01/13 06:20:41;;;;;;;20.10;18.70;;;;;;;;;;5103187;28;20461;-84
2023/01/13 06:23:09;;;;;;;19.57;18.37;;;;;;;;;;5102158;28;20952;-85
2023/01/13 06:25:40;;;;;;;19.60;18.40;;;;;;;;;;5103095;28;20484;-85
2023/01/13 06:28:07;;;;;;;19.80;18.43;;;;;;;;;;5102620;28;20471;-85
2023/01/13 06:30:38;;;;;;;20.43;19.00;;;;;;;;;;5102975;28;20498;-85
2023/01/13 06:33:08;;;;;;;20.93;19.10;;;;;;;;;;5103172;28;20412;-85
2023/01/13 06:35:35;;;;;;;19.87;18.33;;;;;;;;;;5103041;28;21017;-85
2023/01/13 06:38:05;;;;;;;19.63;18.63;;;;;;;;;;5102310;28;20462;-85
2023/01/13 06:40:33;;;;;;;20.83;19.50;;;;;;;;;;5102997;28;20509;-86
2023/01/13 06:43:14;;;;;;;20.57;19.30;;;;;;;;;;5102640;28;20451;-85
2023/01/13 06:45:41;;;;;;;21.93;19.93;;;;;;;;;;5102529;28;20485;-86
2023/01/13 06:48:08;;;;;;;21.43;19.60;;;;;;;;;;5102169;28;20467;-85
2023/01/13 06:50:35;;;;;;;20.50;19.27;;;;;;;;;;5102509;28;20437;-84
2023/01/13 06:53:04;;;;;;;19.07;18.17;;;;;;;;;;5101448;28;20429;-85
2023/01/13 06:55:31;;;;;;;20.80;19.30;;;;;;;;;;5102910;28;20475;-85
2023/01/13 06:57:58;;;;;;;20.93;19.50;;;;;;;;;;5102733;28;20466;-85
2023/01/13 07:00:26;;;;;;;20.43;19.10;;;;;;;;;;5101512;28;20935;-85
2023/01/13 07:02:53;;;;;;;19.20;17.80;;;;;;;;;;5101979;28;20418;-86
2023/01/13 07:05:20;;;;;;;20.40;18.57;;;;;;;;;;5102459;28;20430;-84
2023/01/13 07:07:47;;;;;;;19.50;17.93;;;;;;;;;;5102344;28;20442;-85
2023/01/13 07:10:20;;;;;;;22.40;19.23;;;;;;;;;;5102403;28;20455;-85
2023/01/13 07:15:33;;;;;;;21.03;19.30;;;;;;;;;;5101741;28;20441;-85
2023/01/13 07:18:00;;;;;;;20.20;19.00;;;;;;;;;;5102304;28;20459;-85
2023/01/13 07:20:27;;;;;;;20.73;19.00;;;;;;;;;;5101739;28;20436;-86
2023/01/13 07:22:54;;;;;;;20.30;18.87;;;;;;;;;;5100776;28;20513;-85
2023/01/13 07:25:23;;;;;;;20.47;19.17;;;;;;;;;;5100737;28;20436;-85
2023/01/13 07:27:50;;;;;;;21.27;19.87;;;;;;;;;;5101158;28;20454;-85
2023/01/13 07:30:17;;;;;;;21.17;19.87;;;;;;;;;;5099872;28;20911;-80
2023/01/13 07:32:44;;;;;;;20.63;19.27;;;;;;;;;;5096942;28;20483;-79
2023/01/13 07:35:11;;;;;;;18.37;17.30;;;;;;;;;;5095897;28;20455;-76
2023/01/13 07:37:39;;;;;;;17.73;16.83;;;;;;;;;;5094936;28;20528;-78
2023/01/13 07:40:06;;;;;;;19.67;18.33;;;;;;;;;;5093617;28;20468;-79
2023/01/13 07:45:22;;;;;;;19.53;18.07;;;;;;;;;;5094615;28;20470;-79
2023/01/13 07:47:51;;;;;;;18.67;17.60;;;;;;;;;;5094494;28;20435;-78
2023/01/13 07:50:19;;;;;;;21.13;19.13;;;;;;;;;;5094118;28;20449;-80
2023/01/13 07:52:46;;;;;;;18.93;17.40;;;;;;;;;;5095218;28;20447;-78
2023/01/13 07:55:13;;;;;;;19.03;17.83;;;;;;;;;;5094556;28;20890;-79
2023/01/13 07:57:42;;;;;;;18.67;17.40;;;;;;;;;;5094312;28;20477;-79
2023/01/13 08:00:10;;;;;;;18.33;17.27;;;;;;;;;;5097853;28;20524;-82
2023/01/13 08:02:37;;;;;;;19.70;17.97;;;;;;;;;;5101823;28;20426;-83
2023/01/13 08:05:04;;;;;;;19.37;18.10;;;;;;;;;;5099996;28;20509;-83
2023/01/13 08:07:31;;;;;;;18.60;17.50;;;;;;;;;;5095394;28;20476;-78
2023/01/13 08:09:58;;;;;;;20.47;19.07;;;;;;;;;;5095558;28;20418;-79
2023/01/13 08:15:11;;;;;;;18.53;17.40;;;;;;;;;;5095871;28;20804;-79
2023/01/13 08:17:38;;;;;;;19.83;18.20;;;;;;;;;;5095655;28;20491;-79
2023/01/13 08:20:06;;;;;;;19.50;18.00;;;;;;;;;;5096201;28;20456;-79
2023/01/13 08:22:33;;;;;;;19.57;17.93;;;;;;;;;;5095801;28;21008;-79
2023/01/13 08:25:00;;;;;;;18.43;17.23;;;;;;;;;;5095548;28;20434;-80
2023/01/13 08:27:27;;;;;;;20.90;18.93;;;;;;;;;;5095703;28;20930;-79
2023/01/13 08:29:54;;;;;;;19.13;18.00;;;;;;;;;;5095326;28;20475;-79
2023/01/13 08:32:22;;;;;;;20.60;19.20;;;;;;;;;;5095986;28;20431;-79
2023/01/13 08:34:49;;;;;;;19.47;17.97;;;;;;;;;;5095216;28;20450;-80
2023/01/13 08:37:16;;;;;;;20.27;18.73;;;;;;;;;;5095603;28;20503;-80
2023/01/13 08:39:43;;;;;;;20.47;19.10;;;;;;;;;;5096043;28;20536;-79
2023/01/13 08:42:10;;;;;;;20.80;19.17;;;;;;;;;;5095964;28;20474;-80
2023/01/13 08:44:37;;;;;;;20.80;19.40;;;;;;;;;;5095985;28;20502;-80
2023/01/13 08:47:05;;;;;;;20.37;18.50;;;;;;;;;;5099395;28;20472;-79
2023/01/13 08:49:33;;;;;;;20.37;19.23;;;;;;;;;;5100087;28;20423;-79
2023/01/13 08:52:00;;;;;;;21.80;19.83;;;;;;;;;;5099253;28;20459;-80
2023/01/13 08:54:27;;;;;;;20.40;18.80;;;;;;;;;;5098930;28;20399;-80
2023/01/13 08:56:54;;;;;;;20.63;19.07;;;;;;;;;;5099306;28;20439;-80
2023/01/13 08:59:21;;;;;;;21.00;19.47;;;;;;;;;;5098842;28;20513;-80
2023/01/13 09:01:48;;;;;;;20.77;19.40;;;;;;;;;;5099861;28;20449;-85
2023/01/13 09:04:17;;;;;;;20.90;19.30;;;;;;;;;;5099463;28;20863;-80
2023/01/13 09:06:45;;;;;;;19.60;18.40;;;;;;;;;;5098605;28;20488;-80
2023/01/13 09:09:13;;;;;;;19.73;18.13;;;;;;;;;;5099732;28;20473;-79
2023/01/13 09:14:28;;;;;;;20.57;19.17;;;;;;;;;;5098796;28;20462;-84
2023/01/13 09:16:55;;;;;;;22.43;20.50;;;;;;;;;;5099232;28;20461;-80
2023/01/13 09:19:22;;;;;;;22.30;20.60;;;;;;;;;;5099912;28;20521;-80
2023/01/13 09:21:51;;;;;;;20.00;18.80;;;;;;;;;;5099913;28;20463;-79
2023/01/13 09:24:18;;;;;;;21.27;19.77;;;;;;;;;;5099331;28;20430;-80
2023/01/13 09:26:45;;;;;;;20.80;19.27;;;;;;;;;;5099471;28;20474;-79
2023/01/13 09:29:12;;;;;;;21.07;19.77;;;;;;;;;;5099521;28;20456;-80
2023/01/13 09:31:39;;;;;;;22.10;20.03;;;;;;;;;;5100947;28;20436;-79
2023/01/13 09:36:53;;;;;;;21.93;19.80;;;;;;;;;;5113198;28;20458;-79
2023/01/13 09:39:21;;;;;;;21.10;19.57;;;;;;;;;;5112693;28;20974;-80
2023/01/13 09:44:40;;;;;;;21.10;19.17;;;;;;;;;;5097246;28;20750;-79
2023/01/13 09:47:10;;;;;;;20.67;19.00;;;;;;;;;;5098673;28;20480;-79
2023/01/13 09:49:38;;;;;;;20.70;19.00;;;;;;;;;;5098563;28;20423;-79
2023/01/13 09:52:09;;;;;;;20.67;19.23;;;;;;;;;;5098623;28;20544;-79
2023/01/13 09:54:39;;;;;;;20.10;18.63;;;;;;;;;;5098188;28;20433;-79
2023/01/13 09:57:09;;;;;;;19.93;18.73;;;;;;;;;;5098638;28;20454;-79
2023/01/13 09:59:37;;;;;;;19.47;18.27;;;;;;;;;;5098556;28;20515;-79
2023/01/13 10:02:11;;;;;;;20.43;18.73;;;;;;;;;;5097981;28;20547;-80
2023/01/13 10:04:38;;;;;;;20.40;18.83;;;;;;;;;;5098076;28;20908;-79
2023/01/13 10:07:13;;;;;;;19.93;18.63;;;;;;;;;;5098248;28;20879;-79
2023/01/13 10:09:44;;;;;;;20.80;19.30;;;;;;;;;;5098296;28;20450;-79
2023/01/13 10:14:59;;;;;;;22.00;20.30;;;;;;;;;;5097714;28;21062;-79
2023/01/13 10:17:30;;;;;;;19.60;18.40;;;;;;;;;;5097963;28;20472;-79
2023/01/13 10:20:00;;;;;;;19.77;18.57;;;;;;;;;;5098661;28;20450;-79
2023/01/13 10:22:35;;;;;;;19.70;18.40;;;;;;;;;;5097627;28;20477;-80
2023/01/13 10:25:19;;;;;;;20.47;18.90;;;;;;;;;;5097789;28;20448;-79
2023/01/13 10:27:48;;;;;;;20.23;18.90;;;;;;;;;;5097830;28;20550;-79
2023/01/13 10:30:20;;;;;;;21.27;19.60;;;;;;;;;;5097999;28;20931;-79
2023/01/13 10:32:50;;;;;;;21.80;19.97;;;;;;;;;;5097651;28;20465;-79
2023/01/13 10:35:18;;;;;;;20.53;19.30;;;;;;;;;;5096751;28;20437;-79
2023/01/13 10:37:55;;;;;;;20.40;18.90;;;;;;;;;;5097285;28;20447;-79
2023/01/13 10:40:24;;;;;;;19.50;18.37;;;;;;;;;;5097456;28;20464;-79
2023/01/13 10:43:05;;;;;;;22.07;19.97;;;;;;;;;;5097002;28;20455;-79
2023/01/13 10:45:32;;;;;;;20.80;19.30;;;;;;;;;;5097476;28;20450;-79
2023/01/13 10:48:06;;;;;;;21.97;20.27;;;;;;;;;;5096415;28;20455;-79
2023/01/13 10:50:35;;;;;;;21.37;19.80;;;;;;;;;;5096913;28;20422;-79
2023/01/13 10:53:16;;;;;;;20.13;18.77;;;;;;;;;;5096483;28;20437;-80
2023/01/13 10:55:43;;;;;;;20.60;19.00;;;;;;;;;;5097212;28;20437;-79
2023/01/13 10:58:13;;;;;;;20.07;18.60;;;;;;;;;;5096252;28;20529;-79
2023/01/13 11:00:40;;;;;;;20.67;18.90;;;;;;;;;;5097284;28;20488;-79
2023/01/13 11:03:14;;;;;;;20.93;19.57;;;;;;;;;;5096559;28;20493;-79
2023/01/13 11:05:48;;;;;;;20.10;18.60;;;;;;;;;;5096393;28;20824;-79
2023/01/13 11:08:19;;;;;;;20.60;19.20;;;;;;;;;;5096149;28;20842;-79
2023/01/13 11:10:47;;;;;;;20.20;19.00;;;;;;;;;;5096397;28;20449;-79
2023/01/13 11:13:16;;;;;;;20.73;19.23;;;;;;;;;;5095250;28;20442;-79
2023/01/13 11:15:45;;;;;;;20.00;18.53;;;;;;;;;;5096273;28;20455;-81
2023/01/13 11:18:16;;;;;;;20.50;19.20;;;;;;;;;;5096235;28;21006;-79
2023/01/13 11:20:45;;;;;;;21.60;19.90;;;;;;;;;;5095990;28;21004;-79
2023/01/13 11:23:15;;;;;;;22.10;19.80;;;;;;;;;;5094729;28;20532;-79
2023/01/13 11:25:47;;;;;;;18.43;17.43;;;;;;;;;;5096307;28;20418;-79
2023/01/13 11:28:20;;;;;;;18.83;17.53;;;;;;;;;;5096455;28;20461;-79
2023/01/13 11:30:50;;;;;;;21.30;19.40;;;;;;;;;;5096562;28;20440;-79
2023/01/13 11:33:25;;;;;;;19.43;18.13;;;;;;;;;;5095681;28;20407;-79
2023/01/13 11:35:59;;;;;;;18.63;17.47;;;;;;;;;;5096205;28;20432;-79
2023/01/13 11:38:28;;;;;;;19.27;17.97;;;;;;;;;;5095978;28;20436;-79
2023/01/13 11:40:57;;;;;;;19.63;18.33;;;;;;;;;;5095889;28;21069;-78
2023/01/13 11:43:29;;;;;;;20.80;19.20;;;;;;;;;;5095134;28;20420;-79
2023/01/13 11:45:58;;;;;;;20.47;19.17;;;;;;;;;;5095936;28;20461;-80
2023/01/13 11:48:26;;;;;;;21.73;19.80;;;;;;;;;;5096191;28;20901;-78
2023/01/13 11:50:56;;;;;;;21.70;19.80;;;;;;;;;;5095945;28;20903;-78
2023/01/13 11:53:43;;;;;;;20.90;19.20;;;;;;;;;;5094937;28;20467;-79
2023/01/13 11:56:23;;;;;;;21.63;19.47;;;;;;;;;;5095878;28;20465;-80
2023/01/13 11:59:08;;;;;;;21.47;19.80;;;;;;;;;;5095795;28;20791;-79
2023/01/13 12:01:46;;;;;;;21.00;19.30;;;;;;;;;;5085442;28;20439;-79
2023/01/13 12:04:21;;;;;;;21.93;19.27;;;;;;;;;;5094804;28;21093;-79
2023/01/13 12:06:52;;;;;;;21.13;18.97;;;;;;;;;;5095368;28;21067;-79
2023/01/13 12:09:26;;;;;;;22.27;20.00;;;;;;;;;;5095881;28;20864;-79
2023/01/13 12:14:49;;;;;;;21.53;19.80;;;;;;;;;;5094865;28;20543;-79
2023/01/13 12:17:20;;;;;;;20.00;18.40;;;;;;;;;;5095540;28;20450;-79
2023/01/13 12:19:50;;;;;;;20.30;18.70;;;;;;;;;;5098072;28;20467;-79
2023/01/13 12:22:19;;;;;;;21.40;19.60;;;;;;;;;;5102633;28;20543;-79
2023/01/13 12:24:48;;;;;;;21.23;19.50;;;;;;;;;;5101499;28;20414;-79
2023/01/13 12:27:19;;;;;;;21.97;20.00;;;;;;;;;;5101260;28;20448;-79
2023/01/13 12:29:47;;;;;;;20.50;19.20;;;;;;;;;;5101718;28;20486;-79
2023/01/13 12:32:19;;;;;;;20.83;19.23;;;;;;;;;;5101439;28;20448;-79
2023/01/13 12:34:50;;;;;;;19.70;18.40;;;;;;;;;;5101278;28;20863;-80
2023/01/13 12:37:21;;;;;;;19.83;18.50;;;;;;;;;;5100038;28;20477;-80
2023/01/13 12:39:56;;;;;;;23.47;21.03;;;;;;;;;;5101536;28;20504;-80
2023/01/13 12:45:21;;;;;;;22.10;20.20;;;;;;;;;;5100005;28;20876;-79
2023/01/13 12:47:48;;;;;;;20.83;19.03;;;;;;;;;;5100493;28;20451;-79
2023/01/13 12:50:34;;;;;;;21.00;19.60;;;;;;;;;;5100587;28;20497;-80
2023/01/13 12:53:21;;;;;;;20.83;19.53;;;;;;;;;;5099855;28;20928;-80
2023/01/13 12:55:52;;;;;;;20.17;19.00;;;;;;;;;;5100186;28;20440;-80
2023/01/13 12:58:26;;;;;;;21.43;19.87;;;;;;;;;;5099706;28;20497;-80
2023/01/13 13:01:01;;;;;;;19.50;18.40;;;;;;;;;;5099828;28;20491;-80
2023/01/13 13:03:29;;;;;;;22.93;20.70;;;;;;;;;;5099457;28;20419;-80
2023/01/13 13:05:58;;;;;;;21.53;20.00;;;;;;;;;;5100249;28;20448;-79
2023/01/13 13:08:37;;;;;;;20.77;19.40;;;;;;;;;;5100152;28;20795;-80
2023/01/13 13:13:16;;;;;;;20.43;19.10;;;;;;;;;;5100206;28;20849;-80
2023/01/13 13:14:11;;;;;;;22.13;19.00;;;;;;;;;;5098251;28;20482;-79
2023/01/13 13:16:59;;;;;;;19.97;18.77;;;;;;;;;;5100021;28;20484;-80
2023/01/13 13:19:43;;;;;;;20.93;19.30;;;;;;;;;;5099579;28;20904;-79
2023/01/13 13:22:34;;;;;;;19.80;18.70;;;;;;;;;;5099396;28;20525;-80
2023/01/13 13:25:20;;;;;;;19.97;18.40;;;;;;;;;;5099764;28;20902;-80
2023/01/13 13:27:50;;;;;;;18.80;17.90;;;;;;;;;;5100043;28;20494;-80
2023/01/13 13:30:19;;;;;;;22.07;20.03;;;;;;;;;;5100617;28;20424;-79
2023/01/13 13:33:03;;;;;;;19.07;17.47;;;;;;;;;;5099881;28;20452;-80
2023/01/13 13:35:42;;;;;;;18.87;17.87;;;;;;;;;;5100101;28;20950;-80
2023/01/13 13:46:47;;;;;;;19.73;18.40;;;;;;;;;;5098683;28;20410;-79
2023/01/13 13:49:15;;;;;;;19.87;18.40;;;;;;;;;;5098682;28;20415;-79
2023/01/13 13:51:45;;;;;;;19.50;18.20;;;;;;;;;;5098930;28;20415;-79
2023/01/13 13:54:14;;;;;;;19.93;18.50;;;;;;;;;;5098693;28;20461;-80
2023/01/13 13:56:42;;;;;;;20.97;19.33;;;;;;;;;;5097980;28;20458;-80
2023/01/13 13:59:12;;;;;;;19.30;18.00;;;;;;;;;;5099700;28;20488;-79
2023/01/13 14:01:41;;;;;;;20.40;19.27;;;;;;;;;;5098492;28;20490;-79
2023/01/13 14:04:13;;;;;;;20.37;18.83;;;;;;;;;;5098729;28;20440;-83
2023/01/13 14:06:50;;;;;;;22.33;20.40;;;;;;;;;;5097841;28;20518;-83
2023/01/13 14:09:17;;;;;;;18.77;17.77;;;;;;;;;;5100762;28;20496;-84
2023/01/13 14:11:54;;;;;;;20.07;18.53;;;;;;;;;;5106749;28;20449;-85
2023/01/13 14:14:23;;;;;;;20.80;19.03;;;;;;;;;;5113884;28;20439;-84
2023/01/13 14:16:50;;;;;;;21.33;19.60;;;;;;;;;;5112507;28;20497;-83
2023/01/13 14:19:25;;;;;;;20.67;19.50;;;;;;;;;;5104520;28;20835;-85
2023/01/13 14:21:52;;;;;;;23.90;22.40;;;;;;;;;;5101522;28;20521;-84
2023/01/13 14:24:21;;;;;;;25.07;22.93;;;;;;;;;;5100363;28;20441;-84
2023/01/13 14:26:50;;;;;;;25.23;23.60;;;;;;;;;;5101381;28;20467;-84
2023/01/13 14:29:20;;;;;;;26.13;23.60;;;;;;;;;;5101271;28;20452;-85
2023/01/13 14:31:48;;;;;;;23.37;21.53;;;;;;;;;;5099810;28;20442;-84
2023/01/13 14:34:16;;;;;;;26.20;22.87;;;;;;;;;;5099124;28;20452;-81
2023/01/13 14:36:46;;;;;;;24.73;22.87;;;;;;;;;;5098415;28;20454;-81
2023/01/13 14:39:27;;;;;;;22.73;21.37;;;;;;;;;;5098601;28;20448;-85
2023/01/13 14:41:54;;;;;;;22.20;20.70;;;;;;;;;;5100902;28;20512;-85
2023/01/13 14:44:24;;;;;;;22.40;20.90;;;;;;;;;;5100445;28;20443;-84
2023/01/13 14:46:54;;;;;;;23.43;21.37;;;;;;;;;;5101184;28;20454;-85
2023/01/13 14:49:24;;;;;;;20.87;19.77;;;;;;;;;;5100706;28;20437;-84
2023/01/13 14:51:51;;;;;;;22.73;20.90;;;;;;;;;;5101962;28;20448;-84
2023/01/13 14:54:37;;;;;;;21.70;20.30;;;;;;;;;;5100571;28;20436;-84
2023/01/13 14:57:12;;;;;;;22.93;20.40;;;;;;;;;;5100468;28;20429;-83
2023/01/13 14:59:43;;;;;;;22.43;20.87;;;;;;;;;;5099770;28;20739;-83
2023/01/13 15:02:29;;;;;;;21.80;20.40;;;;;;;;;;5099838;28;20443;-82
2023/01/13 15:04:58;;;;;;;22.70;20.80;;;;;;;;;;5098877;28;20451;-83
2023/01/13 15:07:26;;;;;;;20.20;19.00;;;;;;;;;;5098681;28;20548;-81
2023/01/13 15:09:54;;;;;;;20.37;19.03;;;;;;;;;;5098229;28;20254;-82
2023/01/13 15:12:23;;;;;;;21.33;19.83;;;;;;;;;;5100594;28;20423;-83
2023/01/13 15:14:51;;;;;;;21.13;19.53;;;;;;;;;;5099316;28;20473;-81
2023/01/13 15:17:18;;;;;;;20.67;19.57;;;;;;;;;;5099202;28;20837;-79
2023/01/13 15:19:45;;;;;;;19.90;18.23;;;;;;;;;;5098044;28;20475;-81
2023/01/13 15:22:14;;;;;;;20.55;19.20;;;;;;;;;;5098487;28;20462;-82
2023/01/13 15:24:41;;;;;;;20.15;19.05;;;;;;;;;;5099941;28;20270;-83
2023/01/13 15:27:15;;;;;;;20.90;19.60;;;;;;;;;;5100746;28;20583;-84
2023/01/13 15:29:42;;;;;;;19.73;18.53;;;;;;;;;;5097483;28;20436;-79